Fascination — C6FM9 — position and weather

sailwx.info

Track history (hours):
 
Tides and Currents Weather Stations Pressure Air Temp Water Temp Dewpoint Dewpoint Depression Visibility Wind Speed Wind Dir Waves Ship Positions

Fascination

Operator: Carnival Cruise Lines

Last reported at 2017-Mar-27 22:32 UTC. Time now 2017-Mar-30 04:55 UTC.
Position N 18°11' W 064°53'.

Type: Ship. MMSI: 309682000.

Date/timePositionNaut miles runAvg speedWind from/ knotsBaromVisibWave heightAir tempDewpointWater temp
2017-Mar-27 22:32N 18°11' W 064°53'7 0.5
2017-Mar-27 10:07N 18°17' W 064°56'64 9.7
2017-Mar-27 03:29N 18°37' W 066°00'1111.8
2017-Mar-27 02:33N 18°28' W 066°08'1 1.0
2017-Mar-27 01:32N 18°28' W 066°07'0 0.0
2017-Mar-27 00:31N 18°28' W 066°07'0 0.0
2017-Mar-26 23:28N 18°28' W 066°07'0 0.0
2017-Mar-26 22:30N 18°28' W 066°07'0 0.0
2017-Mar-26 21:33N 18°28' W 066°07'0 0.0
2017-Mar-26 20:33N 18°28' W 066°07'0 0.0
2017-Mar-26 19:32N 18°28' W 066°07'0 0.0
2017-Mar-26 18:32N 18°28' W 066°07'0 0.0
2017-Mar-26 17:31N 18°28' W 066°07'0 0.0
2017-Mar-26 16:31N 18°28' W 066°07'0 0.0
2017-Mar-26 15:34N 18°28' W 066°07'0 0.0
2017-Mar-26 14:30N 18°28' W 066°07'0 0.0
2017-Mar-26 13:33N 18°28' W 066°07'0 0.0
2017-Mar-26 12:29N 18°28' W 066°07'0 0.0
2017-Mar-26 11:32N 18°28' W 066°07'0 0.3
2017-Mar-26 10:33N 18°27' W 066°07'8 8.2
2017-Mar-26 09:33N 18°35' W 066°03'6613.2
2017-Mar-26 04:32N 18°10' W 064°58'165 3.7
2017-Mar-24 08:33N 16°43' W 062°31'1615.5
2017-Mar-24 07:33N 16°29' W 062°24'3421.5
2017-Mar-24 06:00N 16°00' W 062°06'   110 / 291020.310.8 26.021.526.0
2017-Mar-20 23:07N 18°06' W 064°45'611.0
2017-Mar-20 22:33N 18°09' W 064°50'12 1.3
2017-Mar-20 13:29N 18°20' W 064°55'3 0.8
2017-Mar-20 10:07N 18°17' W 064°56'65 9.6
2017-Mar-20 03:21N 18°36' W 066°01'1012.3
2017-Mar-20 02:33N 18°28' W 066°08'1 1.2
2017-Mar-20 01:30N 18°28' W 066°07'0 0.0
2017-Mar-20 00:30N 18°28' W 066°07'0 0.0
2017-Mar-19 23:29N 18°28' W 066°07'0 0.0
2017-Mar-19 22:29N 18°28' W 066°07'0 0.0
2017-Mar-19 21:28N 18°28' W 066°07'0 0.0
2017-Mar-19 20:31N 18°28' W 066°07'0 0.0
2017-Mar-19 19:31N 18°28' W 066°07'0 0.0
2017-Mar-19 18:33N 18°28' W 066°07'0 0.0
2017-Mar-19 17:33N 18°28' W 066°07'0 0.0
2017-Mar-19 16:32N 18°28' W 066°07'0 0.0
2017-Mar-19 15:32N 18°28' W 066°07'0 0.0
2017-Mar-19 14:31N 18°28' W 066°07'0 0.0
2017-Mar-19 13:22N 18°28' W 066°07'0 0.0
2017-Mar-19 12:30N 18°28' W 066°07'0 0.0
2017-Mar-19 11:33N 18°28' W 066°07'1 0.5
2017-Mar-19 10:28N 18°27' W 066°07'8 8.5
2017-Mar-19 09:33N 18°34' W 066°03'6812.7
2017-Mar-19 04:14N 18°10' W 064°57'  
Track history (hours):
 
Tides and Currents Weather Stations Pressure Air Temp Water Temp Dewpoint Dewpoint Depression Visibility Wind Speed Wind Dir Waves Ship Positions

Fascination

Operator: Carnival Cruise Lines

Last reported at 2017-Mar-27 22:32 UTC. Time now 2017-Mar-30 04:55 UTC.
Position N 18°11' W 064°53'.

Type: Ship. MMSI: 309682000.

Date/timePositionNaut miles runAvg speedWind from/ knotsBaromVisibWave heightAir tempDewpointWater temp
2017-Mar-27 22:32N 18°11' W 064°53'7 0.5
2017-Mar-27 10:07N 18°17' W 064°56'64 9.7
2017-Mar-27 03:29N 18°37' W 066°00'1111.8
2017-Mar-27 02:33N 18°28' W 066°08'1 1.0
2017-Mar-27 01:32N 18°28' W 066°07'0 0.0
2017-Mar-27 00:31N 18°28' W 066°07'0 0.0
2017-Mar-26 23:28N 18°28' W 066°07'0 0.0
2017-Mar-26 22:30N 18°28' W 066°07'0 0.0
2017-Mar-26 21:33N 18°28' W 066°07'0 0.0
2017-Mar-26 20:33N 18°28' W 066°07'0 0.0
2017-Mar-26 19:32N 18°28' W 066°07'0 0.0
2017-Mar-26 18:32N 18°28' W 066°07'0 0.0
2017-Mar-26 17:31N 18°28' W 066°07'0 0.0
2017-Mar-26 16:31N 18°28' W 066°07'0 0.0
2017-Mar-26 15:34N 18°28' W 066°07'0 0.0
2017-Mar-26 14:30N 18°28' W 066°07'0 0.0
2017-Mar-26 13:33N 18°28' W 066°07'0 0.0
2017-Mar-26 12:29N 18°28' W 066°07'0 0.0
2017-Mar-26 11:32N 18°28' W 066°07'0 0.3
2017-Mar-26 10:33N 18°27' W 066°07'8 8.2
2017-Mar-26 09:33N 18°35' W 066°03'6613.2
2017-Mar-26 04:32N 18°10' W 064°58'165 3.7
2017-Mar-24 08:33N 16°43' W 062°31'1615.5
2017-Mar-24 07:33N 16°29' W 062°24'3421.5
2017-Mar-24 06:00N 16°00' W 062°06'   110 / 291020.310.8 26.021.526.0
2017-Mar-20 23:07N 18°06' W 064°45'611.0
2017-Mar-20 22:33N 18°09' W 064°50'12 1.3
2017-Mar-20 13:29N 18°20' W 064°55'3 0.8
2017-Mar-20 10:07N 18°17' W 064°56'65 9.6
2017-Mar-20 03:21N 18°36' W 066°01'1012.3
2017-Mar-20 02:33N 18°28' W 066°08'1 1.2
2017-Mar-20 01:30N 18°28' W 066°07'0 0.0
2017-Mar-20 00:30N 18°28' W 066°07'0 0.0
2017-Mar-19 23:29N 18°28' W 066°07'0 0.0
2017-Mar-19 22:29N 18°28' W 066°07'0 0.0
2017-Mar-19 21:28N 18°28' W 066°07'0 0.0
2017-Mar-19 20:31N 18°28' W 066°07'0 0.0
2017-Mar-19 19:31N 18°28' W 066°07'0 0.0
2017-Mar-19 18:33N 18°28' W 066°07'0 0.0
2017-Mar-19 17:33N 18°28' W 066°07'0 0.0
2017-Mar-19 16:32N 18°28' W 066°07'0 0.0
2017-Mar-19 15:32N 18°28' W 066°07'0 0.0
2017-Mar-19 14:31N 18°28' W 066°07'0 0.0
2017-Mar-19 13:22N 18°28' W 066°07'0 0.0
2017-Mar-19 12:30N 18°28' W 066°07'0 0.0
2017-Mar-19 11:33N 18°28' W 066°07'1 0.5
2017-Mar-19 10:28N 18°27' W 066°07'8 8.5
2017-Mar-19 09:33N 18°34' W 066°03'6812.7
2017-Mar-19 04:14N 18°10' W 064°57'  

Dump ship's entire track history